sensor_id;sensor_type;location;lat;lon;timestamp;P1;durP1;ratioP1;P2;durP2;ratioP2
31112;SDS011;17763;48.730;9.136;2023-06-19T00:00:08;9.35;;;8.23;;
31112;SDS011;17763;48.730;9.136;2023-06-19T00:02:41;7.82;;;7.20;;
31112;SDS011;17763;48.730;9.136;2023-06-19T00:05:07;7.57;;;6.88;;
31112;SDS011;17763;48.730;9.136;2023-06-19T00:07:36;8.38;;;7.65;;
31112;SDS011;17763;48.730;9.136;2023-06-19T00:10:05;7.22;;;6.57;;
31112;SDS011;17763;48.730;9.136;2023-06-19T00:12:31;7.68;;;6.95;;
31112;SDS011;17763;48.730;9.136;2023-06-19T00:14:57;9.07;;;7.53;;
31112;SDS011;17763;48.730;9.136;2023-06-19T00:17:22;9.63;;;7.63;;
31112;SDS011;17763;48.730;9.136;2023-06-19T00:19:50;7.90;;;6.78;;
31112;SDS011;17763;48.730;9.136;2023-06-19T00:22:16;7.55;;;6.95;;
31112;SDS011;17763;48.730;9.136;2023-06-19T00:24:42;7.55;;;6.82;;
31112;SDS011;17763;48.730;9.136;2023-06-19T00:27:08;7.80;;;7.13;;
31112;SDS011;17763;48.730;9.136;2023-06-19T00:29:35;7.72;;;7.03;;
31112;SDS011;17763;48.730;9.136;2023-06-19T00:32:01;9.63;;;6.63;;
31112;SDS011;17763;48.730;9.136;2023-06-19T00:34:28;8.40;;;7.05;;
31112;SDS011;17763;48.730;9.136;2023-06-19T00:36:54;7.72;;;6.43;;
31112;SDS011;17763;48.730;9.136;2023-06-19T00:39:22;7.22;;;6.50;;
31112;SDS011;17763;48.730;9.136;2023-06-19T00:41:49;6.90;;;6.30;;
31112;SDS011;17763;48.730;9.136;2023-06-19T00:44:17;7.97;;;6.60;;
31112;SDS011;17763;48.730;9.136;2023-06-19T00:46:43;9.57;;;7.30;;
31112;SDS011;17763;48.730;9.136;2023-06-19T00:49:09;8.20;;;6.55;;
31112;SDS011;17763;48.730;9.136;2023-06-19T00:51:35;7.65;;;7.05;;
31112;SDS011;17763;48.730;9.136;2023-06-19T00:54:01;7.60;;;6.50;;
31112;SDS011;17763;48.730;9.136;2023-06-19T00:56:27;8.05;;;7.20;;
31112;SDS011;17763;48.730;9.136;2023-06-19T00:58:53;8.75;;;7.05;;
31112;SDS011;17763;48.730;9.136;2023-06-19T01:01:19;11.70;;;7.40;;
31112;SDS011;17763;48.730;9.136;2023-06-19T01:03:46;10.23;;;7.20;;
31112;SDS011;17763;48.730;9.136;2023-06-19T01:06:13;7.70;;;7.05;;
31112;SDS011;17763;48.730;9.136;2023-06-19T01:09:01;8.13;;;7.35;;
31112;SDS011;17763;48.730;9.136;2023-06-19T01:11:34;8.20;;;6.57;;
31112;SDS011;17763;48.730;9.136;2023-06-19T01:14:26;8.82;;;7.57;;
31112;SDS011;17763;48.730;9.136;2023-06-19T01:17:00;88.07;;;9.85;;
31112;SDS011;17763;48.730;9.136;2023-06-19T01:19:27;8.75;;;6.43;;
31112;SDS011;17763;48.730;9.136;2023-06-19T01:22:04;7.82;;;6.55;;
31112;SDS011;17763;48.730;9.136;2023-06-19T01:24:30;8.05;;;6.13;;
31112;SDS011;17763;48.730;9.136;2023-06-19T01:26:58;7.57;;;6.10;;
31112;SDS011;17763;48.730;9.136;2023-06-19T01:29:23;6.72;;;6.20;;
31112;SDS011;17763;48.730;9.136;2023-06-19T01:31:59;7.00;;;6.30;;
31112;SDS011;17763;48.730;9.136;2023-06-19T01:34:32;6.20;;;5.63;;
31112;SDS011;17763;48.730;9.136;2023-06-19T01:36:59;5.97;;;5.47;;
31112;SDS011;17763;48.730;9.136;2023-06-19T01:39:30;7.20;;;5.40;;
31112;SDS011;17763;48.730;9.136;2023-06-19T01:41:57;5.65;;;5.18;;
31112;SDS011;17763;48.730;9.136;2023-06-19T01:44:24;6.78;;;5.93;;
31112;SDS011;17763;48.730;9.136;2023-06-19T01:46:50;5.35;;;4.93;;
31112;SDS011;17763;48.730;9.136;2023-06-19T01:49:16;6.13;;;5.45;;
31112;SDS011;17763;48.730;9.136;2023-06-19T01:51:42;8.43;;;5.40;;
31112;SDS011;17763;48.730;9.136;2023-06-19T01:54:08;6.50;;;5.90;;
31112;SDS011;17763;48.730;9.136;2023-06-19T01:56:33;9.13;;;5.70;;
31112;SDS011;17763;48.730;9.136;2023-06-19T01:59:01;5.63;;;5.22;;
31112;SDS011;17763;48.730;9.136;2023-06-19T02:01:27;7.07;;;5.97;;
31112;SDS011;17763;48.730;9.136;2023-06-19T02:03:53;8.50;;;5.45;;
31112;SDS011;17763;48.730;9.136;2023-06-19T02:06:19;5.70;;;5.20;;
31112;SDS011;17763;48.730;9.136;2023-06-19T02:08:46;8.75;;;4.93;;
31112;SDS011;17763;48.730;9.136;2023-06-19T02:11:12;6.47;;;5.28;;
31112;SDS011;17763;48.730;9.136;2023-06-19T02:13:38;6.35;;;5.57;;
31112;SDS011;17763;48.730;9.136;2023-06-19T02:16:03;6.80;;;5.63;;
31112;SDS011;17763;48.730;9.136;2023-06-19T02:18:29;7.30;;;6.60;;
31112;SDS011;17763;48.730;9.136;2023-06-19T02:20:55;5.70;;;5.30;;
31112;SDS011;17763;48.730;9.136;2023-06-19T02:23:20;5.35;;;4.85;;
31112;SDS011;17763;48.730;9.136;2023-06-19T02:25:46;5.53;;;5.13;;
31112;SDS011;17763;48.730;9.136;2023-06-19T02:28:14;7.55;;;5.50;;
31112;SDS011;17763;48.730;9.136;2023-06-19T02:30:41;8.80;;;5.10;;
31112;SDS011;17763;48.730;9.136;2023-06-19T02:33:09;5.30;;;4.80;;
31112;SDS011;17763;48.730;9.136;2023-06-19T02:35:34;5.57;;;5.07;;
31112;SDS011;17763;48.730;9.136;2023-06-19T02:38:00;5.32;;;4.85;;
31112;SDS011;17763;48.730;9.136;2023-06-19T02:40:26;5.47;;;5.07;;
31112;SDS011;17763;48.730;9.136;2023-06-19T02:42:51;5.00;;;4.70;;
31112;SDS011;17763;48.730;9.136;2023-06-19T02:45:17;5.18;;;4.80;;
31112;SDS011;17763;48.730;9.136;2023-06-19T02:47:42;5.47;;;4.97;;
31112;SDS011;17763;48.730;9.136;2023-06-19T02:50:09;4.75;;;4.45;;
31112;SDS011;17763;48.730;9.136;2023-06-19T02:52:34;5.03;;;4.72;;
31112;SDS011;17763;48.730;9.136;2023-06-19T02:55:00;4.75;;;4.45;;
31112;SDS011;17763;48.730;9.136;2023-06-19T02:57:26;4.82;;;4.43;;
31112;SDS011;17763;48.730;9.136;2023-06-19T02:59:51;5.20;;;4.80;;
31112;SDS011;17763;48.730;9.136;2023-06-19T03:02:17;4.57;;;4.25;;
31112;SDS011;17763;48.730;9.136;2023-06-19T03:04:43;6.28;;;4.32;;
31112;SDS011;17763;48.730;9.136;2023-06-19T03:07:11;4.75;;;4.40;;
31112;SDS011;17763;48.730;9.136;2023-06-19T03:09:40;4.32;;;3.83;;
31112;SDS011;17763;48.730;9.136;2023-06-19T03:12:06;4.70;;;4.30;;
31112;SDS011;17763;48.730;9.136;2023-06-19T03:14:32;4.28;;;3.97;;
31112;SDS011;17763;48.730;9.136;2023-06-19T03:16:57;6.40;;;3.83;;
31112;SDS011;17763;48.730;9.136;2023-06-19T03:19:23;3.70;;;3.50;;
31112;SDS011;17763;48.730;9.136;2023-06-19T03:21:49;4.38;;;4.07;;
31112;SDS011;17763;48.730;9.136;2023-06-19T03:24:17;3.83;;;3.60;;
31112;SDS011;17763;48.730;9.136;2023-06-19T03:26:42;3.80;;;3.60;;
31112;SDS011;17763;48.730;9.136;2023-06-19T03:29:08;4.38;;;3.58;;
31112;SDS011;17763;48.730;9.136;2023-06-19T03:31:33;4.00;;;3.70;;
31112;SDS011;17763;48.730;9.136;2023-06-19T03:33:59;3.78;;;3.35;;
31112;SDS011;17763;48.730;9.136;2023-06-19T03:36:25;3.47;;;3.28;;
31112;SDS011;17763;48.730;9.136;2023-06-19T03:38:51;4.05;;;3.58;;
31112;SDS011;17763;48.730;9.136;2023-06-19T03:41:20;3.70;;;3.40;;
31112;SDS011;17763;48.730;9.136;2023-06-19T03:43:48;3.65;;;3.45;;
31112;SDS011;17763;48.730;9.136;2023-06-19T03:46:14;3.65;;;3.40;;
31112;SDS011;17763;48.730;9.136;2023-06-19T03:48:42;3.38;;;3.17;;
31112;SDS011;17763;48.730;9.136;2023-06-19T03:51:08;4.70;;;3.80;;
31112;SDS011;17763;48.730;9.136;2023-06-19T03:53:33;3.28;;;2.97;;
31112;SDS011;17763;48.730;9.136;2023-06-19T03:55:59;3.80;;;3.40;;
31112;SDS011;17763;48.730;9.136;2023-06-19T03:58:25;6.30;;;3.75;;
31112;SDS011;17763;48.730;9.136;2023-06-19T04:00:50;3.58;;;3.35;;
31112;SDS011;17763;48.730;9.136;2023-06-19T04:03:16;3.50;;;3.30;;
31112;SDS011;17763;48.730;9.136;2023-06-19T04:05:42;5.05;;;3.38;;
31112;SDS011;17763;48.730;9.136;2023-06-19T04:08:08;4.07;;;3.67;;
31112;SDS011;17763;48.730;9.136;2023-06-19T04:10:34;3.97;;;3.20;;
31112;SDS011;17763;48.730;9.136;2023-06-19T04:13:02;3.83;;;3.53;;
31112;SDS011;17763;48.730;9.136;2023-06-19T04:15:27;3.75;;;3.38;;
31112;SDS011;17763;48.730;9.136;2023-06-19T04:17:53;4.78;;;3.83;;
31112;SDS011;17763;48.730;9.136;2023-06-19T04:20:19;4.72;;;4.07;;
31112;SDS011;17763;48.730;9.136;2023-06-19T04:22:47;4.05;;;3.65;;
31112;SDS011;17763;48.730;9.136;2023-06-19T04:25:12;4.43;;;3.63;;
31112;SDS011;17763;48.730;9.136;2023-06-19T04:27:40;3.58;;;3.28;;
31112;SDS011;17763;48.730;9.136;2023-06-19T04:30:06;5.03;;;3.58;;
31112;SDS011;17763;48.730;9.136;2023-06-19T04:32:33;3.78;;;3.47;;
31112;SDS011;17763;48.730;9.136;2023-06-19T04:34:59;3.75;;;3.45;;
31112;SDS011;17763;48.730;9.136;2023-06-19T04:37:28;4.13;;;3.53;;
31112;SDS011;17763;48.730;9.136;2023-06-19T04:39:53;3.42;;;3.22;;
31112;SDS011;17763;48.730;9.136;2023-06-19T04:42:19;4.13;;;3.83;;
31112;SDS011;17763;48.730;9.136;2023-06-19T04:44:46;3.92;;;3.63;;
31112;SDS011;17763;48.730;9.136;2023-06-19T04:47:12;3.92;;;3.63;;
31112;SDS011;17763;48.730;9.136;2023-06-19T04:49:38;3.72;;;3.53;;
31112;SDS011;17763;48.730;9.136;2023-06-19T04:52:04;5.15;;;3.95;;
31112;SDS011;17763;48.730;9.136;2023-06-19T04:54:30;5.55;;;3.72;;
31112;SDS011;17763;48.730;9.136;2023-06-19T04:56:57;4.70;;;3.92;;
31112;SDS011;17763;48.730;9.136;2023-06-19T04:59:23;4.03;;;3.63;;
31112;SDS011;17763;48.730;9.136;2023-06-19T05:01:49;4.35;;;4.05;;
31112;SDS011;17763;48.730;9.136;2023-06-19T05:04:21;3.95;;;3.65;;
31112;SDS011;17763;48.730;9.136;2023-06-19T05:06:49;5.03;;;3.30;;
31112;SDS011;17763;48.730;9.136;2023-06-19T05:09:18;4.18;;;3.78;;
31112;SDS011;17763;48.730;9.136;2023-06-19T05:11:44;3.38;;;3.10;;
31112;SDS011;17763;48.730;9.136;2023-06-19T05:14:12;3.92;;;3.50;;
31112;SDS011;17763;48.730;9.136;2023-06-19T05:16:39;4.57;;;3.35;;
31112;SDS011;17763;48.730;9.136;2023-06-19T05:19:05;3.67;;;2.95;;
31112;SDS011;17763;48.730;9.136;2023-06-19T05:21:31;3.45;;;3.15;;
31112;SDS011;17763;48.730;9.136;2023-06-19T05:23:56;3.75;;;3.42;;
31112;SDS011;17763;48.730;9.136;2023-06-19T05:26:25;3.65;;;3.35;;
31112;SDS011;17763;48.730;9.136;2023-06-19T05:28:51;4.45;;;3.28;;
31112;SDS011;17763;48.730;9.136;2023-06-19T05:31:19;3.47;;;3.28;;
31112;SDS011;17763;48.730;9.136;2023-06-19T05:33:45;7.40;;;3.15;;
31112;SDS011;17763;48.730;9.136;2023-06-19T05:36:11;7.18;;;3.30;;
31112;SDS011;17763;48.730;9.136;2023-06-19T05:38:36;3.55;;;3.30;;
31112;SDS011;17763;48.730;9.136;2023-06-19T05:41:02;5.05;;;3.60;;
31112;SDS011;17763;48.730;9.136;2023-06-19T05:43:31;3.30;;;3.10;;
31112;SDS011;17763;48.730;9.136;2023-06-19T05:45:57;3.58;;;3.28;;
31112;SDS011;17763;48.730;9.136;2023-06-19T05:48:24;3.83;;;3.15;;
31112;SDS011;17763;48.730;9.136;2023-06-19T05:50:50;4.22;;;3.85;;
31112;SDS011;17763;48.730;9.136;2023-06-19T05:53:16;3.92;;;3.63;;
31112;SDS011;17763;48.730;9.136;2023-06-19T05:55:42;3.65;;;3.35;;
31112;SDS011;17763;48.730;9.136;2023-06-19T05:58:08;4.13;;;3.83;;
31112;SDS011;17763;48.730;9.136;2023-06-19T06:00:36;5.07;;;3.65;;
31112;SDS011;17763;48.730;9.136;2023-06-19T06:03:02;3.35;;;3.15;;
31112;SDS011;17763;48.730;9.136;2023-06-19T06:05:28;3.78;;;3.47;;
31112;SDS011;17763;48.730;9.136;2023-06-19T06:07:54;3.67;;;3.47;;
31112;SDS011;17763;48.730;9.136;2023-06-19T06:10:21;3.25;;;3.05;;
31112;SDS011;17763;48.730;9.136;2023-06-19T06:12:47;3.10;;;2.90;;
31112;SDS011;17763;48.730;9.136;2023-06-19T06:15:14;3.47;;;3.28;;
31112;SDS011;17763;48.730;9.136;2023-06-19T06:17:40;6.53;;;2.92;;
31112;SDS011;17763;48.730;9.136;2023-06-19T06:20:05;4.18;;;2.83;;
31112;SDS011;17763;48.730;9.136;2023-06-19T06:22:37;3.15;;;2.95;;
31112;SDS011;17763;48.730;9.136;2023-06-19T06:25:06;3.20;;;3.00;;
31112;SDS011;17763;48.730;9.136;2023-06-19T06:27:33;4.07;;;2.60;;
31112;SDS011;17763;48.730;9.136;2023-06-19T06:29:59;2.58;;;2.40;;
31112;SDS011;17763;48.730;9.136;2023-06-19T06:32:28;3.10;;;2.90;;
31112;SDS011;17763;48.730;9.136;2023-06-19T06:34:55;2.83;;;2.63;;
31112;SDS011;17763;48.730;9.136;2023-06-19T06:37:24;3.10;;;2.80;;
31112;SDS011;17763;48.730;9.136;2023-06-19T06:39:50;3.00;;;2.67;;
31112;SDS011;17763;48.730;9.136;2023-06-19T06:42:16;4.65;;;3.08;;
31112;SDS011;17763;48.730;9.136;2023-06-19T06:44:42;2.58;;;2.38;;
31112;SDS011;17763;48.730;9.136;2023-06-19T06:47:12;3.83;;;3.53;;
31112;SDS011;17763;48.730;9.136;2023-06-19T06:49:40;4.15;;;3.85;;
31112;SDS011;17763;48.730;9.136;2023-06-19T06:52:07;3.10;;;2.95;;
31112;SDS011;17763;48.730;9.136;2023-06-19T06:54:33;6.38;;;3.00;;
31112;SDS011;17763;48.730;9.136;2023-06-19T06:56:59;2.60;;;2.50;;
31112;SDS011;17763;48.730;9.136;2023-06-19T06:59:28;2.70;;;2.50;;
31112;SDS011;17763;48.730;9.136;2023-06-19T07:01:56;3.20;;;2.53;;
31112;SDS011;17763;48.730;9.136;2023-06-19T07:04:22;2.78;;;2.58;;
31112;SDS011;17763;48.730;9.136;2023-06-19T07:06:48;2.80;;;2.63;;
31112;SDS011;17763;48.730;9.136;2023-06-19T07:09:14;2.92;;;2.53;;
31112;SDS011;17763;48.730;9.136;2023-06-19T07:11:43;3.45;;;2.55;;
31112;SDS011;17763;48.730;9.136;2023-06-19T07:14:09;3.15;;;2.67;;
31112;SDS011;17763;48.730;9.136;2023-06-19T07:16:34;2.78;;;2.58;;
31112;SDS011;17763;48.730;9.136;2023-06-19T07:19:00;2.70;;;2.50;;
31112;SDS011;17763;48.730;9.136;2023-06-19T07:21:32;2.65;;;2.45;;
31112;SDS011;17763;48.730;9.136;2023-06-19T07:23:58;2.63;;;2.42;;
31112;SDS011;17763;48.730;9.136;2023-06-19T07:26:24;3.15;;;2.50;;
31112;SDS011;17763;48.730;9.136;2023-06-19T07:28:50;3.05;;;2.85;;
31112;SDS011;17763;48.730;9.136;2023-06-19T07:31:16;2.60;;;2.40;;
31112;SDS011;17763;48.730;9.136;2023-06-19T07:33:41;3.10;;;2.80;;
31112;SDS011;17763;48.730;9.136;2023-06-19T07:36:07;2.75;;;2.60;;
31112;SDS011;17763;48.730;9.136;2023-06-19T07:38:38;2.70;;;2.50;;
31112;SDS011;17763;48.730;9.136;2023-06-19T07:41:05;2.28;;;2.17;;
31112;SDS011;17763;48.730;9.136;2023-06-19T07:43:32;3.05;;;2.00;;
31112;SDS011;17763;48.730;9.136;2023-06-19T07:46:00;5.63;;;2.70;;
31112;SDS011;17763;48.730;9.136;2023-06-19T07:48:26;3.45;;;2.50;;
31112;SDS011;17763;48.730;9.136;2023-06-19T07:50:52;2.85;;;2.65;;
31112;SDS011;17763;48.730;9.136;2023-06-19T07:53:23;3.88;;;2.30;;
31112;SDS011;17763;48.730;9.136;2023-06-19T07:55:48;2.78;;;2.67;;
31112;SDS011;17763;48.730;9.136;2023-06-19T07:58:14;3.60;;;2.72;;
31112;SDS011;17763;48.730;9.136;2023-06-19T08:00:40;2.40;;;2.30;;
31112;SDS011;17763;48.730;9.136;2023-06-19T08:03:06;2.95;;;2.67;;
31112;SDS011;17763;48.730;9.136;2023-06-19T08:05:32;2.47;;;2.38;;
31112;SDS011;17763;48.730;9.136;2023-06-19T08:08:00;3.10;;;2.90;;
31112;SDS011;17763;48.730;9.136;2023-06-19T08:10:26;2.90;;;2.70;;
31112;SDS011;17763;48.730;9.136;2023-06-19T08:12:54;3.10;;;2.90;;
31112;SDS011;17763;48.730;9.136;2023-06-19T08:15:20;3.20;;;3.00;;
31112;SDS011;17763;48.730;9.136;2023-06-19T08:17:46;3.45;;;3.25;;
31112;SDS011;17763;48.730;9.136;2023-06-19T08:20:11;4.57;;;3.55;;
31112;SDS011;17763;48.730;9.136;2023-06-19T08:22:37;3.72;;;3.42;;
31112;SDS011;17763;48.730;9.136;2023-06-19T08:25:03;3.25;;;3.05;;
31112;SDS011;17763;48.730;9.136;2023-06-19T08:27:29;5.28;;;3.28;;
31112;SDS011;17763;48.730;9.136;2023-06-19T08:29:55;3.15;;;2.92;;
31112;SDS011;17763;48.730;9.136;2023-06-19T08:32:21;6.18;;;3.38;;
31112;SDS011;17763;48.730;9.136;2023-06-19T08:34:46;3.45;;;3.10;;
31112;SDS011;17763;48.730;9.136;2023-06-19T08:37:12;4.63;;;3.20;;
31112;SDS011;17763;48.730;9.136;2023-06-19T08:39:40;3.63;;;3.33;;
31112;SDS011;17763;48.730;9.136;2023-06-19T08:42:09;3.58;;;3.20;;
31112;SDS011;17763;48.730;9.136;2023-06-19T08:44:37;3.30;;;2.80;;
31112;SDS011;17763;48.730;9.136;2023-06-19T08:47:03;3.15;;;2.92;;
31112;SDS011;17763;48.730;9.136;2023-06-19T08:49:30;3.13;;;2.83;;
31112;SDS011;17763;48.730;9.136;2023-06-19T08:51:56;2.95;;;2.75;;
31112;SDS011;17763;48.730;9.136;2023-06-19T08:54:22;4.57;;;3.00;;
31112;SDS011;17763;48.730;9.136;2023-06-19T08:56:47;5.88;;;3.08;;
31112;SDS011;17763;48.730;9.136;2023-06-19T08:59:18;7.85;;;3.35;;
31112;SDS011;17763;48.730;9.136;2023-06-19T09:01:48;4.93;;;2.92;;
31112;SDS011;17763;48.730;9.136;2023-06-19T09:04:20;3.60;;;2.40;;
31112;SDS011;17763;48.730;9.136;2023-06-19T09:06:52;2.80;;;2.60;;
31112;SDS011;17763;48.730;9.136;2023-06-19T09:09:20;3.33;;;2.92;;
31112;SDS011;17763;48.730;9.136;2023-06-19T09:12:00;2.92;;;2.22;;
31112;SDS011;17763;48.730;9.136;2023-06-19T09:17:03;2.65;;;2.45;;
31112;SDS011;17763;48.730;9.136;2023-06-19T09:19:30;2.78;;;2.58;;
31112;SDS011;17763;48.730;9.136;2023-06-19T09:24:35;2.22;;;2.13;;
31112;SDS011;17763;48.730;9.136;2023-06-19T09:27:12;3.15;;;2.15;;
31112;SDS011;17763;48.730;9.136;2023-06-19T09:29:42;2.42;;;2.33;;
31112;SDS011;17763;48.730;9.136;2023-06-19T09:32:22;2.38;;;2.17;;
31112;SDS011;17763;48.730;9.136;2023-06-19T09:34:51;2.33;;;2.17;;
31112;SDS011;17763;48.730;9.136;2023-06-19T09:37:22;14.38;;;6.57;;
31112;SDS011;17763;48.730;9.136;2023-06-19T09:39:53;14.93;;;7.68;;
31112;SDS011;17763;48.730;9.136;2023-06-19T09:42:26;9.95;;;5.50;;
31112;SDS011;17763;48.730;9.136;2023-06-19T09:45:03;9.20;;;3.80;;
31112;SDS011;17763;48.730;9.136;2023-06-19T09:47:42;8.40;;;4.60;;
31112;SDS011;17763;48.730;9.136;2023-06-19T09:50:11;13.00;;;6.63;;
31112;SDS011;17763;48.730;9.136;2023-06-19T09:52:41;6.05;;;4.65;;
31112;SDS011;17763;48.730;9.136;2023-06-19T09:55:09;3.72;;;3.38;;
31112;SDS011;17763;48.730;9.136;2023-06-19T09:57:38;6.70;;;3.35;;
31112;SDS011;17763;48.730;9.136;2023-06-19T10:00:07;3.20;;;2.97;;
31112;SDS011;17763;48.730;9.136;2023-06-19T10:02:39;4.30;;;2.88;;
31112;SDS011;17763;48.730;9.136;2023-06-19T10:05:06;5.65;;;3.25;;
31112;SDS011;17763;48.730;9.136;2023-06-19T10:07:41;5.43;;;2.83;;
31112;SDS011;17763;48.730;9.136;2023-06-19T10:10:08;2.72;;;2.63;;
31112;SDS011;17763;48.730;9.136;2023-06-19T10:12:41;2.90;;;2.70;;
31112;SDS011;17763;48.730;9.136;2023-06-19T10:15:10;4.10;;;2.38;;
31112;SDS011;17763;48.730;9.136;2023-06-19T10:20:30;3.15;;;2.70;;
31112;SDS011;17763;48.730;9.136;2023-06-19T10:23:06;3.33;;;3.13;;
31112;SDS011;17763;48.730;9.136;2023-06-19T10:25:36;3.78;;;3.42;;
31112;SDS011;17763;48.730;9.136;2023-06-19T10:28:15;3.25;;;3.00;;
31112;SDS011;17763;48.730;9.136;2023-06-19T10:31:08;3.33;;;3.08;;
31112;SDS011;17763;48.730;9.136;2023-06-19T10:33:34;3.30;;;3.00;;
31112;SDS011;17763;48.730;9.136;2023-06-19T10:36:17;4.80;;;3.03;;
31112;SDS011;17763;48.730;9.136;2023-06-19T10:38:45;4.07;;;2.67;;
31112;SDS011;17763;48.730;9.136;2023-06-19T10:41:16;3.05;;;2.85;;
31112;SDS011;17763;48.730;9.136;2023-06-19T10:43:51;3.10;;;2.88;;
31112;SDS011;17763;48.730;9.136;2023-06-19T10:46:18;3.50;;;3.30;;
31112;SDS011;17763;48.730;9.136;2023-06-19T10:48:46;7.65;;;3.47;;
31112;SDS011;17763;48.730;9.136;2023-06-19T10:51:13;4.82;;;3.67;;
31112;SDS011;17763;48.730;9.136;2023-06-19T10:53:43;3.97;;;3.67;;
31112;SDS011;17763;48.730;9.136;2023-06-19T10:56:09;4.10;;;3.28;;
31112;SDS011;17763;48.730;9.136;2023-06-19T10:58:34;3.60;;;3.40;;
31112;SDS011;17763;48.730;9.136;2023-06-19T11:01:00;3.42;;;3.10;;
31112;SDS011;17763;48.730;9.136;2023-06-19T11:03:26;4.05;;;3.65;;
31112;SDS011;17763;48.730;9.136;2023-06-19T11:05:52;3.88;;;3.58;;
31112;SDS011;17763;48.730;9.136;2023-06-19T11:08:18;4.03;;;3.58;;
31112;SDS011;17763;48.730;9.136;2023-06-19T11:10:45;3.65;;;3.40;;
31112;SDS011;17763;48.730;9.136;2023-06-19T11:13:17;3.80;;;3.50;;
31112;SDS011;17763;48.730;9.136;2023-06-19T11:15:44;4.35;;;3.80;;
31112;SDS011;17763;48.730;9.136;2023-06-19T11:18:10;3.60;;;3.30;;
31112;SDS011;17763;48.730;9.136;2023-06-19T11:20:46;3.65;;;3.35;;
31112;SDS011;17763;48.730;9.136;2023-06-19T11:23:16;3.83;;;3.53;;
31112;SDS011;17763;48.730;9.136;2023-06-19T11:25:49;4.55;;;3.97;;
31112;SDS011;17763;48.730;9.136;2023-06-19T11:28:15;3.80;;;3.50;;
31112;SDS011;17763;48.730;9.136;2023-06-19T11:30:47;3.95;;;3.60;;
31112;SDS011;17763;48.730;9.136;2023-06-19T11:35:51;5.53;;;3.92;;
31112;SDS011;17763;48.730;9.136;2023-06-19T11:38:18;3.88;;;3.58;;
31112;SDS011;17763;48.730;9.136;2023-06-19T11:40:48;4.03;;;3.30;;
31112;SDS011;17763;48.730;9.136;2023-06-19T11:46:12;4.68;;;3.38;;
31112;SDS011;17763;48.730;9.136;2023-06-19T11:48:38;3.50;;;3.20;;
31112;SDS011;17763;48.730;9.136;2023-06-19T11:51:04;3.70;;;3.40;;
31112;SDS011;17763;48.730;9.136;2023-06-19T11:53:30;4.13;;;3.22;;
31112;SDS011;17763;48.730;9.136;2023-06-19T11:55:55;4.35;;;4.03;;
31112;SDS011;17763;48.730;9.136;2023-06-19T11:58:21;3.97;;;3.67;;
31112;SDS011;17763;48.730;9.136;2023-06-19T12:00:47;5.07;;;3.38;;
31112;SDS011;17763;48.730;9.136;2023-06-19T12:03:13;3.50;;;3.30;;
31112;SDS011;17763;48.730;9.136;2023-06-19T12:05:39;3.72;;;3.33;;
31112;SDS011;17763;48.730;9.136;2023-06-19T12:08:05;3.88;;;3.67;;
31112;SDS011;17763;48.730;9.136;2023-06-19T12:10:32;10.02;;;3.92;;
31112;SDS011;17763;48.730;9.136;2023-06-19T12:12:58;4.22;;;3.85;;
31112;SDS011;17763;48.730;9.136;2023-06-19T12:15:24;3.78;;;3.45;;
31112;SDS011;17763;48.730;9.136;2023-06-19T12:17:50;5.22;;;3.53;;
31112;SDS011;17763;48.730;9.136;2023-06-19T12:20:16;4.78;;;3.35;;
31112;SDS011;17763;48.730;9.136;2023-06-19T12:22:42;4.05;;;3.63;;
31112;SDS011;17763;48.730;9.136;2023-06-19T12:25:08;3.75;;;3.55;;
31112;SDS011;17763;48.730;9.136;2023-06-19T12:27:34;5.70;;;3.45;;
31112;SDS011;17763;48.730;9.136;2023-06-19T12:30:00;4.30;;;4.00;;
31112;SDS011;17763;48.730;9.136;2023-06-19T12:32:25;4.97;;;4.57;;
31112;SDS011;17763;48.730;9.136;2023-06-19T12:34:51;4.93;;;4.40;;
31112;SDS011;17763;48.730;9.136;2023-06-19T12:37:19;4.88;;;3.90;;
31112;SDS011;17763;48.730;9.136;2023-06-19T12:39:46;3.80;;;3.50;;
31112;SDS011;17763;48.730;9.136;2023-06-19T12:42:12;8.00;;;4.03;;
31112;SDS011;17763;48.730;9.136;2023-06-19T12:44:40;5.15;;;3.47;;
31112;SDS011;17763;48.730;9.136;2023-06-19T12:47:06;3.83;;;3.33;;
31112;SDS011;17763;48.730;9.136;2023-06-19T12:49:32;3.80;;;3.60;;
31112;SDS011;17763;48.730;9.136;2023-06-19T12:52:01;4.22;;;3.92;;
31112;SDS011;17763;48.730;9.136;2023-06-19T12:54:27;4.22;;;3.30;;
31112;SDS011;17763;48.730;9.136;2023-06-19T12:56:53;8.40;;;3.88;;
31112;SDS011;17763;48.730;9.136;2023-06-19T12:59:19;9.80;;;8.85;;
31112;SDS011;17763;48.730;9.136;2023-06-19T13:01:45;6.38;;;3.28;;
31112;SDS011;17763;48.730;9.136;2023-06-19T13:04:11;3.85;;;3.10;;
31112;SDS011;17763;48.730;9.136;2023-06-19T13:06:40;3.47;;;3.25;;
31112;SDS011;17763;48.730;9.136;2023-06-19T13:09:08;3.08;;;2.65;;
31112;SDS011;17763;48.730;9.136;2023-06-19T13:11:34;3.70;;;3.40;;
31112;SDS011;17763;48.730;9.136;2023-06-19T13:14:02;3.50;;;3.30;;
31112;SDS011;17763;48.730;9.136;2023-06-19T13:16:28;3.55;;;3.25;;
31112;SDS011;17763;48.730;9.136;2023-06-19T13:18:56;3.55;;;3.35;;
31112;SDS011;17763;48.730;9.136;2023-06-19T13:21:22;3.60;;;3.33;;
31112;SDS011;17763;48.730;9.136;2023-06-19T13:23:47;3.70;;;3.45;;
31112;SDS011;17763;48.730;9.136;2023-06-19T13:26:14;4.15;;;3.75;;
31112;SDS011;17763;48.730;9.136;2023-06-19T13:28:40;4.03;;;3.72;;
31112;SDS011;17763;48.730;9.136;2023-06-19T13:31:06;3.30;;;3.10;;
31112;SDS011;17763;48.730;9.136;2023-06-19T13:33:34;4.57;;;3.95;;
31112;SDS011;17763;48.730;9.136;2023-06-19T13:36:00;5.22;;;3.42;;
31112;SDS011;17763;48.730;9.136;2023-06-19T13:38:25;4.10;;;3.70;;
31112;SDS011;17763;48.730;9.136;2023-06-19T13:40:51;4.93;;;3.42;;
31112;SDS011;17763;48.730;9.136;2023-06-19T13:43:17;3.60;;;3.40;;
31112;SDS011;17763;48.730;9.136;2023-06-19T13:45:43;3.80;;;3.50;;
31112;SDS011;17763;48.730;9.136;2023-06-19T13:48:08;5.93;;;3.88;;
31112;SDS011;17763;48.730;9.136;2023-06-19T13:50:34;6.20;;;4.80;;
31112;SDS011;17763;48.730;9.136;2023-06-19T13:53:00;5.00;;;4.60;;
31112;SDS011;17763;48.730;9.136;2023-06-19T13:55:27;3.90;;;3.30;;
31112;SDS011;17763;48.730;9.136;2023-06-19T13:57:52;5.90;;;3.40;;
31112;SDS011;17763;48.730;9.136;2023-06-19T14:00:18;4.18;;;3.78;;
31112;SDS011;17763;48.730;9.136;2023-06-19T14:02:45;5.30;;;3.78;;
31112;SDS011;17763;48.730;9.136;2023-06-19T14:05:11;3.85;;;3.65;;
31112;SDS011;17763;48.730;9.136;2023-06-19T14:07:40;4.15;;;3.85;;
31112;SDS011;17763;48.730;9.136;2023-06-19T14:10:07;3.30;;;3.00;;
31112;SDS011;17763;48.730;9.136;2023-06-19T14:12:33;3.72;;;3.42;;
31112;SDS011;17763;48.730;9.136;2023-06-19T14:14:58;3.95;;;3.53;;
31112;SDS011;17763;48.730;9.136;2023-06-19T14:17:26;3.17;;;2.92;;
31112;SDS011;17763;48.730;9.136;2023-06-19T14:19:52;3.25;;;3.05;;
31112;SDS011;17763;48.730;9.136;2023-06-19T14:22:22;4.47;;;3.45;;
31112;SDS011;17763;48.730;9.136;2023-06-19T14:24:47;4.22;;;3.47;;
31112;SDS011;17763;48.730;9.136;2023-06-19T14:27:13;4.10;;;3.70;;
31112;SDS011;17763;48.730;9.136;2023-06-19T14:29:41;3.40;;;3.17;;
31112;SDS011;17763;48.730;9.136;2023-06-19T14:32:07;3.40;;;3.17;;
31112;SDS011;17763;48.730;9.136;2023-06-19T14:34:33;3.53;;;3.30;;
31112;SDS011;17763;48.730;9.136;2023-06-19T14:36:58;3.88;;;3.22;;
31112;SDS011;17763;48.730;9.136;2023-06-19T14:39:24;4.38;;;3.30;;
31112;SDS011;17763;48.730;9.136;2023-06-19T14:41:49;3.75;;;3.42;;
31112;SDS011;17763;48.730;9.136;2023-06-19T14:44:15;3.85;;;3.50;;
31112;SDS011;17763;48.730;9.136;2023-06-19T14:46:41;4.18;;;3.50;;
31112;SDS011;17763;48.730;9.136;2023-06-19T14:49:10;5.90;;;3.05;;
31112;SDS011;17763;48.730;9.136;2023-06-19T14:51:39;3.65;;;3.45;;
31112;SDS011;17763;48.730;9.136;2023-06-19T14:54:05;4.28;;;3.88;;
31112;SDS011;17763;48.730;9.136;2023-06-19T14:56:30;3.95;;;3.40;;
31112;SDS011;17763;48.730;9.136;2023-06-19T14:58:56;6.53;;;3.30;;
31112;SDS011;17763;48.730;9.136;2023-06-19T15:01:22;3.47;;;3.22;;